INFORMACIÓN METAR y TAF
METAR FOR ESOW
ADDS - METARS form results

(1629 UTC 14 December 2019)
Data provider http://aviationweather.gov/metar/data/
 
METAR text: ESOW 141620Z AUTO 09005KT 050V120 8000 FEW007/// BKN011/// OVC013/// 04/02 Q0985
Conditions at: ESOW (VASTERAS/HASSLO , SE) observed 1620 UTC 14 December 2019
Temperature: 4.0°C (39°F)
Dewpoint: 2.0°C (36°F) [RH = 87%]
Pressure (altimeter): 29.08 inches Hg (985.0 mb)
Winds: from the E (90 degrees) at 6 MPH (5 knots; 2.6 m/s)
Visibility: 5 miles ( 8 km)
Ceiling: 1100 feet AGL
Clouds: few clouds at 700 feet AGL
broken clouds at 1100 feet AGL
overcast cloud deck at 1300 feet AGL
Weather: no significant weather observed at this time

METAR text: ESOW 141550Z AUTO 11004KT 070V140 9000 -DZ SCT007/// OVC010/// 03/02 Q0986
Conditions at: ESOW (VASTERAS/HASSLO , SE) observed 1550 UTC 14 December 2019
Temperature: 3.0°C (37°F)
Dewpoint: 2.0°C (36°F) [RH = 93%]
Pressure (altimeter): 29.11 inches Hg (986.0 mb)
Winds: from the ESE (110 degrees) at 5 MPH (4 knots; 2.1 m/s)
Visibility: 6 miles ( 9 km)
Ceiling: 1000 feet AGL
Clouds: scattered clouds at 700 feet AGL
overcast cloud deck at 1000 feet AGL
Weather: -DZ  (light drizzle)

 MAPA DE AEROPUERTO

 INFORMACIÓN DE PISTA
Pista 01 Longitud 8468 ft Ancho 164 ft
Elevación 5 ft Umbral desplazado 1312 ft Rumbo de pista 8
Pista 19 Longitud 8468 ft Ancho 164 ft
Elevación 21 ft Umbral desplazado 0 ft Rumbo de pista 188

 FRECUANCIAS DEL AEROPUERTO
Tipo APP Nombre CON Frecuencia 125.95 MHZ
Tipo TWR Nombre TWR Frecuencia 130.6 MHZ

 RADIO AYUDAS DEL AEROPUERTO
Tipo VOR-DME Nombre Aros Frecuencia 112800 KHZ



Powered by Virtual Airlines Manager [v2.6.2]